Time;durP1;ratioP1;P1;durP2;ratioP2;P2;SDS_P1;SDS_P2;PMS_P1;PMS_P2;Temp;Humidity;BMP_temperature;BMP_pressure;BME280_temperature;BME280_humidity;BME280_pressure;Samples;Min_cycle;Max_cycle;Signal;HPM_P1;HPM_P2
2021/05/12 00:00:16;;;;;;;17.40;15.55;;;;;;;;;;5069010;28;20374;-84
2021/05/12 00:02:42;;;;;;;17.52;15.68;;;;;;;;;;5068929;28;20406;-85
2021/05/12 00:05:09;;;;;;;16.23;14.50;;;;;;;;;;5069005;28;20381;-84
2021/05/12 00:07:35;;;;;;;16.67;13.98;;;;;;;;;;5070236;28;20366;-85
2021/05/12 00:10:01;;;;;;;15.95;14.00;;;;;;;;;;5068805;28;20705;-86
2021/05/12 00:12:27;;;;;;;14.75;13.25;;;;;;;;;;5069959;28;20378;-84
2021/05/12 00:14:53;;;;;;;17.75;14.70;;;;;;;;;;5068781;28;20461;-85
2021/05/12 00:17:20;;;;;;;16.50;14.50;;;;;;;;;;5068922;28;20864;-83
2021/05/12 00:19:57;;;;;;;16.25;14.35;;;;;;;;;;5070201;28;20362;-85
2021/05/12 00:22:46;;;;;;;14.43;13.00;;;;;;;;;;5068730;28;20381;-84
2021/05/12 00:25:13;;;;;;;17.63;14.48;;;;;;;;;;5069194;28;20752;-86
2021/05/12 00:27:39;;;;;;;19.50;14.23;;;;;;;;;;5069284;28;20868;-85
2021/05/12 00:30:06;;;;;;;16.58;14.20;;;;;;;;;;5068760;28;20374;-85
2021/05/12 00:32:32;;;;;;;16.27;14.50;;;;;;;;;;5068494;28;20370;-83
2021/05/12 00:34:58;;;;;;;16.40;14.80;;;;;;;;;;5070470;28;20385;-85
2021/05/12 00:37:24;;;;;;;15.95;14.40;;;;;;;;;;5069444;28;20779;-84
2021/05/12 00:39:50;;;;;;;15.40;13.85;;;;;;;;;;5069388;28;20377;-85
2021/05/12 00:42:17;;;;;;;17.88;14.25;;;;;;;;;;5071642;28;20374;-86
2021/05/12 00:44:43;;;;;;;15.93;14.20;;;;;;;;;;5073325;28;20410;-85
2021/05/12 00:47:09;;;;;;;16.10;14.50;;;;;;;;;;5056890;28;20382;-83
2021/05/12 00:49:35;;;;;;;18.38;14.25;;;;;;;;;;5073210;28;20427;-85
2021/05/12 00:52:02;;;;;;;15.85;14.20;;;;;;;;;;5074072;28;20378;-83
2021/05/12 00:54:28;;;;;;;16.67;14.07;;;;;;;;;;5072376;28;20465;-83
2021/05/12 00:56:55;;;;;;;15.10;13.48;;;;;;;;;;5072449;28;20461;-84
2021/05/12 00:59:29;;;;;;;15.00;13.27;;;;;;;;;;5072386;28;20809;-83
2021/05/12 01:01:55;;;;;;;15.77;12.63;;;;;;;;;;5072117;28;20445;-86
2021/05/12 01:04:21;;;;;;;15.73;13.27;;;;;;;;;;5072221;28;20436;-83
2021/05/12 01:06:47;;;;;;;15.25;13.60;;;;;;;;;;5072058;28;20466;-86
2021/05/12 01:09:13;;;;;;;14.48;12.70;;;;;;;;;;5072210;28;20385;-84
2021/05/12 01:11:40;;;;;;;15.02;12.93;;;;;;;;;;5072160;28;20439;-85
2021/05/12 01:14:06;;;;;;;16.70;12.63;;;;;;;;;;5072050;28;20370;-85
2021/05/12 01:16:32;;;;;;;14.75;12.93;;;;;;;;;;5071792;28;20377;-86
2021/05/12 01:18:58;;;;;;;14.32;12.60;;;;;;;;;;5073355;28;20409;-85
2021/05/12 01:21:24;;;;;;;14.13;12.20;;;;;;;;;;5073209;28;20448;-83
2021/05/12 01:23:51;;;;;;;11.80;10.60;;;;;;;;;;5071824;28;20430;-85
2021/05/12 01:26:19;;;;;;;15.68;12.10;;;;;;;;;;5071737;28;20752;-85
2021/05/12 01:28:46;;;;;;;16.27;12.38;;;;;;;;;;5071800;28;20377;-86
2021/05/12 01:31:15;;;;;;;14.65;12.75;;;;;;;;;;5071524;28;20374;-84
2021/05/12 01:33:41;;;;;;;13.55;12.23;;;;;;;;;;5072871;28;20362;-85
2021/05/12 01:36:07;;;;;;;13.70;12.27;;;;;;;;;;5072924;28;20370;-85
2021/05/12 01:38:34;;;;;;;15.45;12.80;;;;;;;;;;5071556;28;20375;-84
2021/05/12 01:41:02;;;;;;;13.45;11.90;;;;;;;;;;5071640;28;20394;-84
2021/05/12 01:43:29;;;;;;;12.68;11.25;;;;;;;;;;5071599;28;20463;-85
2021/05/12 01:45:55;;;;;;;13.88;12.43;;;;;;;;;;5072688;28;20427;-85
2021/05/12 01:48:21;;;;;;;13.60;12.20;;;;;;;;;;5072822;28;20358;-86
2021/05/12 01:50:47;;;;;;;14.98;11.65;;;;;;;;;;5071687;28;20778;-84
2021/05/12 01:53:14;;;;;;;12.18;10.70;;;;;;;;;;5071830;28;20367;-85
2021/05/12 01:55:40;;;;;;;11.75;10.25;;;;;;;;;;5071467;28;20444;-83
2021/05/12 01:58:07;;;;;;;11.60;9.80;;;;;;;;;;5072615;28;20892;-85
2021/05/12 02:00:39;;;;;;;11.63;9.77;;;;;;;;;;5071191;28;20370;-84
2021/05/12 02:03:07;;;;;;;11.23;9.75;;;;;;;;;;5072448;28;20409;-85
2021/05/12 02:05:33;;;;;;;11.32;8.93;;;;;;;;;;5071130;28;20823;-85
2021/05/12 02:08:00;;;;;;;11.20;9.20;;;;;;;;;;5071168;28;20748;-83
2021/05/12 02:10:27;;;;;;;13.98;9.10;;;;;;;;;;5071149;28;20406;-83
2021/05/12 02:12:53;;;;;;;13.18;9.52;;;;;;;;;;5072081;28;20461;-83
2021/05/12 02:15:19;;;;;;;10.43;8.80;;;;;;;;;;5070939;28;20371;-83
2021/05/12 02:17:46;;;;;;;9.13;8.15;;;;;;;;;;5072281;28;20378;-84
2021/05/12 02:20:26;;;;;;;11.32;8.20;;;;;;;;;;5070676;28;20378;-83
2021/05/12 02:22:53;;;;;;;11.98;8.73;;;;;;;;;;5070590;28;20452;-83
2021/05/12 02:25:19;;;;;;;10.40;8.50;;;;;;;;;;5070677;28;20374;-84
2021/05/12 02:27:45;;;;;;;11.23;8.15;;;;;;;;;;5071813;28;20477;-83
2021/05/12 02:30:11;;;;;;;13.07;8.23;;;;;;;;;;5070673;28;20370;-83
2021/05/12 02:32:38;;;;;;;10.55;8.23;;;;;;;;;;5071585;28;21078;-83
2021/05/12 02:35:05;;;;;;;10.73;8.50;;;;;;;;;;5070612;28;20378;-83
2021/05/12 02:37:31;;;;;;;13.55;8.50;;;;;;;;;;5071620;28;20879;-82
2021/05/12 02:39:57;;;;;;;10.00;8.17;;;;;;;;;;5070399;28;20374;-82
2021/05/12 02:42:23;;;;;;;11.98;8.80;;;;;;;;;;5070175;28;20429;-83
2021/05/12 02:44:49;;;;;;;10.70;8.37;;;;;;;;;;5071444;28;20437;-84
2021/05/12 02:47:15;;;;;;;13.13;8.60;;;;;;;;;;5070319;28;20405;-83
2021/05/12 02:49:41;;;;;;;9.00;8.10;;;;;;;;;;5071447;28;20370;-83
2021/05/12 02:52:07;;;;;;;12.00;8.68;;;;;;;;;;5070312;28;20382;-83
2021/05/12 02:54:34;;;;;;;9.30;8.40;;;;;;;;;;5071673;28;20366;-83
2021/05/12 02:57:00;;;;;;;10.95;8.45;;;;;;;;;;5071090;28;20437;-85
2021/05/12 02:59:26;;;;;;;11.77;8.35;;;;;;;;;;5069992;28;20965;-84
2021/05/12 03:01:52;;;;;;;11.88;8.23;;;;;;;;;;5070824;28;20382;-84
2021/05/12 03:04:18;;;;;;;11.45;8.50;;;;;;;;;;5069707;28;20459;-83
2021/05/12 03:06:44;;;;;;;9.20;7.60;;;;;;;;;;5069746;28;20473;-84
2021/05/12 03:09:10;;;;;;;12.15;7.80;;;;;;;;;;5070909;28;20366;-83
2021/05/12 03:11:36;;;;;;;10.90;8.15;;;;;;;;;;5071008;28;20362;-84
2021/05/12 03:14:04;;;;;;;9.57;8.18;;;;;;;;;;5069679;28;20366;-83
2021/05/12 03:16:30;;;;;;;8.87;7.97;;;;;;;;;;5069484;28;20397;-84
2021/05/12 03:18:56;;;;;;;11.13;8.25;;;;;;;;;;5069828;28;20370;-84
2021/05/12 03:21:23;;;;;;;11.82;8.40;;;;;;;;;;5070935;28;20373;-84
2021/05/12 03:23:49;;;;;;;11.35;7.95;;;;;;;;;;5069991;28;21026;-83
2021/05/12 03:26:16;;;;;;;10.57;7.55;;;;;;;;;;5070280;28;20384;-83
2021/05/12 03:28:43;;;;;;;9.82;8.20;;;;;;;;;;5071041;28;20366;-83
2021/05/12 03:31:10;;;;;;;10.82;7.72;;;;;;;;;;5069821;28;20386;-84
2021/05/12 03:33:36;;;;;;;11.07;8.20;;;;;;;;;;5070979;28;20375;-84
2021/05/12 03:36:02;;;;;;;11.45;7.93;;;;;;;;;;5071120;28;20748;-83
2021/05/12 03:38:28;;;;;;;11.63;8.73;;;;;;;;;;5069634;28;20382;-84
2021/05/12 03:40:55;;;;;;;12.15;8.05;;;;;;;;;;5071475;28;20397;-84
2021/05/12 03:43:21;;;;;;;11.05;7.68;;;;;;;;;;5070826;28;20471;-84
2021/05/12 03:45:47;;;;;;;11.13;8.35;;;;;;;;;;5069926;28;20885;-83
2021/05/12 03:48:13;;;;;;;11.63;8.55;;;;;;;;;;5069992;28;20386;-83
2021/05/12 03:50:39;;;;;;;10.73;8.75;;;;;;;;;;5069379;28;20382;-83
2021/05/12 03:53:06;;;;;;;11.70;8.40;;;;;;;;;;5068883;28;20397;-83
2021/05/12 03:55:32;;;;;;;11.65;8.40;;;;;;;;;;5068954;28;20791;-83
2021/05/12 03:57:58;;;;;;;13.02;8.63;;;;;;;;;;5070309;28;20462;-84
2021/05/12 04:00:24;;;;;;;11.77;7.97;;;;;;;;;;5069101;28;20468;-84
2021/05/12 04:02:50;;;;;;;10.23;8.15;;;;;;;;;;5069928;28;20390;-83
2021/05/12 04:05:16;;;;;;;10.63;8.02;;;;;;;;;;5068946;28;20432;-83
2021/05/12 04:07:42;;;;;;;11.10;8.15;;;;;;;;;;5070041;28;20709;-83
2021/05/12 04:10:10;;;;;;;9.85;7.63;;;;;;;;;;5069094;28;20381;-83
2021/05/12 04:12:36;;;;;;;10.07;8.32;;;;;;;;;;5068726;28;20413;-84
2021/05/12 04:15:02;;;;;;;9.95;7.65;;;;;;;;;;5068781;28;20374;-83
2021/05/12 04:17:28;;;;;;;10.18;7.82;;;;;;;;;;5069694;28;20427;-83
2021/05/12 04:19:55;;;;;;;10.73;8.05;;;;;;;;;;5068637;28;20461;-83
2021/05/12 04:22:21;;;;;;;9.20;7.82;;;;;;;;;;5070055;28;20378;-83
2021/05/12 04:24:47;;;;;;;10.90;8.15;;;;;;;;;;5068606;28;20588;-84
2021/05/12 04:27:13;;;;;;;11.63;8.32;;;;;;;;;;5068875;28;20366;-84
2021/05/12 04:29:39;;;;;;;10.95;8.15;;;;;;;;;;5069696;28;20362;-83
2021/05/12 04:32:05;;;;;;;10.57;8.35;;;;;;;;;;5069994;28;20402;-83
2021/05/12 04:34:31;;;;;;;11.38;8.10;;;;;;;;;;5068361;28;20370;-83
2021/05/12 04:36:57;;;;;;;10.48;7.75;;;;;;;;;;5070153;28;20370;-83
2021/05/12 04:39:23;;;;;;;9.70;7.78;;;;;;;;;;5069879;28;20879;-84
2021/05/12 04:41:50;;;;;;;9.02;7.93;;;;;;;;;;5069867;28;20385;-83
2021/05/12 04:44:16;;;;;;;11.25;7.90;;;;;;;;;;5068404;28;20409;-82
2021/05/12 04:46:44;;;;;;;12.02;8.02;;;;;;;;;;5069959;28;20366;-83
2021/05/12 04:49:10;;;;;;;10.50;8.27;;;;;;;;;;5070844;28;20374;-83
2021/05/12 04:51:36;;;;;;;9.07;8.18;;;;;;;;;;5070692;28;20400;-83
2021/05/12 04:54:04;;;;;;;10.10;8.88;;;;;;;;;;5068890;28;20385;-83
2021/05/12 04:56:30;;;;;;;9.68;8.27;;;;;;;;;;5068593;28;20366;-83
2021/05/12 04:58:56;;;;;;;10.60;8.23;;;;;;;;;;5069103;28;20384;-83
2021/05/12 05:01:22;;;;;;;11.00;8.03;;;;;;;;;;5068549;28;20366;-83
2021/05/12 05:03:48;;;;;;;11.43;8.43;;;;;;;;;;5068248;28;20463;-83
2021/05/12 05:06:14;;;;;;;9.10;7.57;;;;;;;;;;5068690;28;20461;-83
2021/05/12 05:08:40;;;;;;;9.05;7.85;;;;;;;;;;5069346;28;20367;-83
2021/05/12 05:11:06;;;;;;;10.27;8.25;;;;;;;;;;5068949;28;20389;-83
2021/05/12 05:13:32;;;;;;;11.00;7.68;;;;;;;;;;5070048;28;20367;-83
2021/05/12 05:15:58;;;;;;;10.35;7.93;;;;;;;;;;5070018;28;20709;-83
2021/05/12 05:18:25;;;;;;;11.15;8.40;;;;;;;;;;5080275;28;20369;-84
2021/05/12 05:20:53;;;;;;;10.13;8.45;;;;;;;;;;5078192;28;20873;-83
2021/05/12 05:23:19;;;;;;;9.18;7.63;;;;;;;;;;5088206;28;20399;-84
2021/05/12 05:25:45;;;;;;;9.40;8.35;;;;;;;;;;5072561;28;20386;-82
2021/05/12 05:28:11;;;;;;;10.05;9.05;;;;;;;;;;5071303;28;20371;-84
2021/05/12 05:30:37;;;;;;;10.77;9.30;;;;;;;;;;5080920;28;20391;-83
2021/05/12 05:33:03;;;;;;;15.05;11.07;;;;;;;;;;5093541;28;20372;-84
2021/05/12 05:35:29;;;;;;;13.90;11.25;;;;;;;;;;5093128;28;20409;-84
2021/05/12 05:37:55;;;;;;;12.63;10.63;;;;;;;;;;5093324;28;20388;-85
2021/05/12 05:40:22;;;;;;;12.88;10.77;;;;;;;;;;5092903;28;20403;-84
2021/05/12 05:42:57;;;;;;;13.80;10.13;;;;;;;;;;5093012;28;20381;-84
2021/05/12 05:45:23;;;;;;;11.70;10.50;;;;;;;;;;5092958;28;20383;-85
2021/05/12 05:47:49;;;;;;;12.65;10.48;;;;;;;;;;5092867;28;20747;-85
2021/05/12 05:50:15;;;;;;;11.80;10.60;;;;;;;;;;5092997;28;20380;-83
2021/05/12 05:52:42;;;;;;;12.07;10.80;;;;;;;;;;5092822;28;20382;-84
2021/05/12 05:55:08;;;;;;;12.98;11.30;;;;;;;;;;5092778;28;20737;-83
2021/05/12 05:57:34;;;;;;;13.15;11.52;;;;;;;;;;5092736;28;20776;-83
2021/05/12 06:00:00;;;;;;;14.65;12.18;;;;;;;;;;5091430;28;20368;-85
2021/05/12 06:02:26;;;;;;;14.80;13.20;;;;;;;;;;5091629;28;20384;-84
2021/05/12 06:04:52;;;;;;;16.02;13.73;;;;;;;;;;5090916;28;20404;-83
2021/05/12 06:07:18;;;;;;;13.77;12.32;;;;;;;;;;5091251;28;20874;-84
2021/05/12 06:09:44;;;;;;;15.07;13.25;;;;;;;;;;5091167;28;20379;-81
2021/05/12 06:12:10;;;;;;;14.63;12.32;;;;;;;;;;5101447;28;20395;-82
2021/05/12 06:14:36;;;;;;;15.00;13.50;;;;;;;;;;5092315;28;20376;-83
2021/05/12 06:17:02;;;;;;;16.67;14.50;;;;;;;;;;5092773;28;20430;-85
2021/05/12 06:19:28;;;;;;;16.40;14.70;;;;;;;;;;5092656;28;20375;-84
2021/05/12 06:21:54;;;;;;;18.17;15.48;;;;;;;;;;5092815;28;20514;-84
2021/05/12 06:24:20;;;;;;;17.38;15.30;;;;;;;;;;5091223;28;20407;-85
2021/05/12 06:26:47;;;;;;;20.50;16.25;;;;;;;;;;5091426;28;20381;-83
2021/05/12 06:29:13;;;;;;;17.80;15.50;;;;;;;;;;5080874;28;20388;-83
2021/05/12 06:31:39;;;;;;;17.80;15.98;;;;;;;;;;5071835;28;20378;-81
2021/05/12 06:34:05;;;;;;;19.30;17.30;;;;;;;;;;5088575;28;20364;-80
2021/05/12 06:36:31;;;;;;;20.80;17.65;;;;;;;;;;5073231;28;20464;-81
2021/05/12 06:38:57;;;;;;;22.10;18.30;;;;;;;;;;5070870;28;20378;-81
2021/05/12 06:41:23;;;;;;;20.50;18.37;;;;;;;;;;5072343;28;20837;-80
2021/05/12 06:43:49;;;;;;;25.42;19.63;;;;;;;;;;5071809;28;20398;-83
2021/05/12 06:46:16;;;;;;;23.92;19.77;;;;;;;;;;5071272;28;20393;-82
2021/05/12 06:48:42;;;;;;;25.40;20.30;;;;;;;;;;5071898;28;20373;-80
2021/05/12 06:51:08;;;;;;;24.70;20.47;;;;;;;;;;5072033;28;20370;-83
2021/05/12 06:53:35;;;;;;;23.33;19.93;;;;;;;;;;5071409;28;20354;-83
2021/05/12 06:56:01;;;;;;;24.85;20.50;;;;;;;;;;5071475;28;20885;-82
2021/05/12 06:58:27;;;;;;;23.63;20.97;;;;;;;;;;5071065;28;20435;-84
2021/05/12 07:00:54;;;;;;;25.90;21.47;;;;;;;;;;5071535;28;20413;-83
2021/05/12 07:03:22;;;;;;;27.95;22.73;;;;;;;;;;5070822;28;20901;-81
2021/05/12 07:05:48;;;;;;;26.98;23.00;;;;;;;;;;5069976;28;20421;-82
2021/05/12 07:08:15;;;;;;;27.70;23.05;;;;;;;;;;5071236;28;20374;-82
2021/05/12 07:10:41;;;;;;;27.05;21.55;;;;;;;;;;5070954;28;20380;-81
2021/05/12 07:13:07;;;;;;;28.00;22.52;;;;;;;;;;5070111;28;20373;-80
2021/05/12 07:15:33;;;;;;;28.27;22.77;;;;;;;;;;5068055;28;20787;-81
2021/05/12 07:17:59;;;;;;;28.30;23.40;;;;;;;;;;5079397;28;20373;-82
2021/05/12 07:20:25;;;;;;;25.67;21.23;;;;;;;;;;5086315;28;20373;-82
2021/05/12 07:22:51;;;;;;;26.15;21.63;;;;;;;;;;5088208;28;20780;-82
2021/05/12 07:25:17;;;;;;;26.13;21.45;;;;;;;;;;5089111;28;20400;-82
2021/05/12 07:27:43;;;;;;;25.27;21.63;;;;;;;;;;5089496;28;20418;-81
2021/05/12 07:30:10;;;;;;;26.43;22.30;;;;;;;;;;5091158;28;20364;-82
2021/05/12 07:32:36;;;;;;;27.70;21.85;;;;;;;;;;5090773;28;20403;-82
2021/05/12 07:35:02;;;;;;;24.48;21.70;;;;;;;;;;5089908;28;20425;-82
2021/05/12 07:37:28;;;;;;;26.77;22.70;;;;;;;;;;5090835;28;20463;-82
2021/05/12 07:39:54;;;;;;;25.95;22.30;;;;;;;;;;5090543;28;20369;-82
2021/05/12 07:42:23;;;;;;;25.58;20.92;;;;;;;;;;5090882;28;20359;-82
2021/05/12 07:44:49;;;;;;;24.88;21.80;;;;;;;;;;5090867;28;20491;-81
2021/05/12 07:47:16;;;;;;;26.80;22.63;;;;;;;;;;5090614;28;20371;-81
2021/05/12 07:49:42;;;;;;;27.27;22.23;;;;;;;;;;5091139;28;20369;-83
2021/05/12 07:52:13;;;;;;;25.42;21.77;;;;;;;;;;5088408;28;20502;-81
2021/05/12 07:54:40;;;;;;;25.52;21.23;;;;;;;;;;5090106;28;20411;-82
2021/05/12 07:57:07;;;;;;;24.30;21.70;;;;;;;;;;5091237;28;20396;-82
2021/05/12 07:59:33;;;;;;;24.13;21.23;;;;;;;;;;5091115;28;20398;-82
2021/05/12 08:02:02;;;;;;;26.52;22.05;;;;;;;;;;5089696;28;20457;-82
2021/05/12 08:04:28;;;;;;;27.33;21.08;;;;;;;;;;5090934;28;20400;-82
2021/05/12 08:06:54;;;;;;;25.63;21.98;;;;;;;;;;5090694;28;20513;-82
2021/05/12 08:09:20;;;;;;;25.42;21.40;;;;;;;;;;5090122;28;20387;-82
2021/05/12 08:11:46;;;;;;;27.30;21.92;;;;;;;;;;5084080;28;20388;-83
2021/05/12 08:14:12;;;;;;;25.95;21.67;;;;;;;;;;5089410;28;20408;-82
2021/05/12 08:16:38;;;;;;;24.63;20.75;;;;;;;;;;5085688;28;20409;-82
2021/05/12 08:19:05;;;;;;;26.55;21.95;;;;;;;;;;5090524;28;20866;-82
2021/05/12 08:21:32;;;;;;;26.83;21.80;;;;;;;;;;5089888;28;20402;-83
2021/05/12 08:23:58;;;;;;;24.17;21.20;;;;;;;;;;5089222;28;20487;-83
2021/05/12 08:26:24;;;;;;;26.15;22.67;;;;;;;;;;5089405;28;20793;-83
2021/05/12 08:28:50;;;;;;;24.73;21.60;;;;;;;;;;5083731;28;20376;-82
2021/05/12 08:31:18;;;;;;;23.90;21.40;;;;;;;;;;5089879;28;20365;-84
2021/05/12 08:33:44;;;;;;;24.80;21.02;;;;;;;;;;5088637;28;20501;-83
2021/05/12 08:36:10;;;;;;;22.67;19.92;;;;;;;;;;5089864;28;21049;-83
2021/05/12 08:38:37;;;;;;;23.73;20.73;;;;;;;;;;5087239;28;20373;-84
2021/05/12 08:41:03;;;;;;;25.07;22.37;;;;;;;;;;5087663;28;20505;-84
2021/05/12 08:43:31;;;;;;;23.23;20.87;;;;;;;;;;5088534;28;20400;-84
2021/05/12 08:45:57;;;;;;;23.08;20.38;;;;;;;;;;5088002;28;20437;-82
2021/05/12 08:48:24;;;;;;;24.47;20.63;;;;;;;;;;5089245;28;20889;-82
2021/05/12 08:50:52;;;;;;;25.08;21.63;;;;;;;;;;5079250;28;20384;-83
2021/05/12 08:53:18;;;;;;;26.58;21.85;;;;;;;;;;5089290;28;20372;-82
2021/05/12 08:55:45;;;;;;;25.33;21.98;;;;;;;;;;5090044;28;20805;-82
2021/05/12 08:58:11;;;;;;;25.55;22.00;;;;;;;;;;5089121;28;20365;-83
2021/05/12 09:00:39;;;;;;;25.52;22.73;;;;;;;;;;5089952;28;20738;-82
2021/05/12 09:03:06;;;;;;;27.40;23.85;;;;;;;;;;5089196;28;20392;-84
2021/05/12 09:05:32;;;;;;;28.02;23.27;;;;;;;;;;5091234;28;20426;-82
2021/05/12 09:08:01;;;;;;;28.30;24.02;;;;;;;;;;5092081;28;20431;-84
2021/05/12 09:10:27;;;;;;;30.83;24.53;;;;;;;;;;5091554;28;20387;-83
2021/05/12 09:12:56;;;;;;;26.95;23.13;;;;;;;;;;5091989;28;20862;-84
2021/05/12 09:15:24;;;;;;;26.15;22.70;;;;;;;;;;5092572;28;20369;-83
2021/05/12 09:17:50;;;;;;;25.00;21.95;;;;;;;;;;5090693;28;20463;-83
2021/05/12 09:20:20;;;;;;;23.35;20.35;;;;;;;;;;5092277;28;20376;-83
2021/05/12 09:22:50;;;;;;;24.70;21.13;;;;;;;;;;5081267;28;20392;-83
2021/05/12 09:25:17;;;;;;;23.27;19.75;;;;;;;;;;5088685;28;20727;-82
2021/05/12 09:27:52;;;;;;;24.58;20.13;;;;;;;;;;5079431;28;20385;-84
2021/05/12 09:30:24;;;;;;;21.77;19.23;;;;;;;;;;5072970;28;20394;-83
2021/05/12 09:32:50;;;;;;;22.38;19.02;;;;;;;;;;5087059;28;20376;-83
2021/05/12 09:35:17;;;;;;;24.02;20.17;;;;;;;;;;5091012;28;20949;-83
2021/05/12 09:37:44;;;;;;;21.75;18.58;;;;;;;;;;5093330;28;20406;-83
2021/05/12 09:40:11;;;;;;;24.70;18.55;;;;;;;;;;5086551;28;20389;-83
2021/05/12 09:42:38;;;;;;;20.33;18.07;;;;;;;;;;5072874;28;20409;-83
2021/05/12 09:45:11;;;;;;;22.05;18.15;;;;;;;;;;5084514;28;20915;-83
2021/05/12 09:47:37;;;;;;;20.77;17.67;;;;;;;;;;5093442;28;20369;-82
2021/05/12 09:50:12;;;;;;;19.90;17.08;;;;;;;;;;5088481;28;20390;-83
2021/05/12 09:52:38;;;;;;;18.65;16.65;;;;;;;;;;5082798;28;20385;-83
2021/05/12 09:55:05;;;;;;;19.08;17.02;;;;;;;;;;5087550;28;20823;-83
2021/05/12 09:57:31;;;;;;;19.08;17.00;;;;;;;;;;5071277;28;20455;-84
2021/05/12 09:59:57;;;;;;;18.65;16.75;;;;;;;;;;5075808;28;20481;-84
2021/05/12 10:02:23;;;;;;;19.23;16.88;;;;;;;;;;5093066;28;20459;-82
2021/05/12 10:04:50;;;;;;;19.23;16.67;;;;;;;;;;5086375;28;20779;-82
2021/05/12 10:07:26;;;;;;;18.85;16.33;;;;;;;;;;5072967;28;21114;-82
2021/05/12 10:09:53;;;;;;;18.70;16.58;;;;;;;;;;5076582;28;20400;-82
2021/05/12 10:12:21;;;;;;;18.25;15.68;;;;;;;;;;5091379;28;20372;-83
2021/05/12 10:14:49;;;;;;;19.02;16.15;;;;;;;;;;5089807;28;20380;-82
2021/05/12 10:17:16;;;;;;;18.80;15.35;;;;;;;;;;5092135;28;20380;-83
2021/05/12 10:19:44;;;;;;;16.75;14.95;;;;;;;;;;5087820;28;20397;-83
2021/05/12 10:22:11;;;;;;;16.55;14.77;;;;;;;;;;5090498;28;20361;-83
2021/05/12 10:24:38;;;;;;;19.85;15.95;;;;;;;;;;5088677;28;20617;-82
2021/05/12 10:27:24;;;;;;;17.58;15.27;;;;;;;;;;5083495;28;20392;-82
2021/05/12 10:29:54;;;;;;;17.92;16.08;;;;;;;;;;5087637;28;20479;-82
2021/05/12 10:32:31;;;;;;;17.08;14.00;;;;;;;;;;5089550;28;20519;-83
2021/05/12 10:35:09;;;;;;;18.58;14.48;;;;;;;;;;5099618;28;21047;-84
2021/05/12 10:37:37;;;;;;;16.25;14.55;;;;;;;;;;5102847;28;20888;-84
2021/05/12 10:40:16;;;;;;;18.08;14.50;;;;;;;;;;5105810;28;20380;-83
2021/05/12 10:43:40;;;;;;;18.38;15.18;;;;;;;;;;5101691;28;20364;-83
2021/05/12 10:45:48;;;;;;;18.33;14.50;;;;;;;;;;5080282;28;20444;-83
2021/05/12 10:48:26;;;;;;;18.20;15.80;;;;;;;;;;5087558;28;20791;-83
2021/05/12 10:50:52;;;;;;;18.50;14.53;;;;;;;;;;5085922;28;20384;-84
2021/05/12 10:53:22;;;;;;;18.15;15.82;;;;;;;;;;5089282;28;20414;-83
2021/05/12 10:56:08;;;;;;;18.00;15.60;;;;;;;;;;5090961;28;20738;-82
2021/05/12 10:58:38;;;;;;;20.45;16.73;;;;;;;;;;5087261;28;20383;-83
2021/05/12 11:01:05;;;;;;;20.25;16.10;;;;;;;;;;5089219;28;20360;-83
2021/05/12 11:06:16;;;;;;;19.77;17.50;;;;;;;;;;5076582;28;20384;-84
2021/05/12 11:09:01;;;;;;;18.42;16.48;;;;;;;;;;5089356;28;20416;-83
2021/05/12 11:11:27;;;;;;;20.85;17.58;;;;;;;;;;5091478;28;20673;-84
2021/05/12 11:14:13;;;;;;;19.88;17.20;;;;;;;;;;5090487;28;20886;-82
2021/05/12 11:16:59;;;;;;;20.65;17.45;;;;;;;;;;5089785;28;20380;-83
2021/05/12 11:19:46;;;;;;;20.60;18.05;;;;;;;;;;5091408;28;20738;-84
2021/05/12 11:32:32;;;;;;;23.42;20.73;;;;;;;;;;5086320;28;20380;-83
2021/05/12 11:34:58;;;;;;;23.38;20.67;;;;;;;;;;5090443;28;20365;-82
2021/05/12 11:37:26;;;;;;;21.55;19.13;;;;;;;;;;5088729;28;20400;-83
2021/05/12 11:39:54;;;;;;;22.08;19.80;;;;;;;;;;5088814;28;20365;-83
2021/05/12 11:42:26;;;;;;;20.70;18.60;;;;;;;;;;5080836;28;20901;-83
2021/05/12 11:45:29;;;;;;;22.98;19.02;;;;;;;;;;5088629;28;20397;-84
2021/05/12 11:48:03;;;;;;;26.17;21.20;;;;;;;;;;5056737;28;20376;-83
2021/05/12 11:50:31;;;;;;;23.08;20.67;;;;;;;;;;5086993;28;20498;-82
2021/05/12 11:52:58;;;;;;;22.45;20.10;;;;;;;;;;5088937;28;20372;-83
2021/05/12 11:55:28;;;;;;;22.00;19.57;;;;;;;;;;5089030;28;20380;-83
2021/05/12 11:57:55;;;;;;;22.58;19.35;;;;;;;;;;5085421;28;20381;-82
2021/05/12 12:00:24;;;;;;;22.05;19.75;;;;;;;;;;5087916;28;20380;-82
2021/05/12 12:02:57;;;;;;;20.65;18.55;;;;;;;;;;5085741;28;20471;-84
2021/05/12 12:05:24;;;;;;;20.05;18.05;;;;;;;;;;5089760;28;20384;-83
2021/05/12 12:08:08;;;;;;;19.48;17.38;;;;;;;;;;5087812;28;21784;-83
2021/05/12 12:10:34;;;;;;;19.38;17.48;;;;;;;;;;5086531;28;20404;-83
2021/05/12 12:13:02;;;;;;;20.58;18.48;;;;;;;;;;5089050;28;20909;-83
2021/05/12 12:15:28;;;;;;;20.50;18.50;;;;;;;;;;5089634;28;20412;-84
2021/05/12 12:17:54;;;;;;;20.83;18.83;;;;;;;;;;5090611;28;20396;-84
2021/05/12 12:20:29;;;;;;;20.43;18.43;;;;;;;;;;5090030;28;20876;-85
2021/05/12 12:22:56;;;;;;;21.48;19.30;;;;;;;;;;5090291;28;20463;-84
2021/05/12 12:25:29;;;;;;;20.67;18.63;;;;;;;;;;5089074;28;20387;-83
2021/05/12 12:27:55;;;;;;;20.23;17.95;;;;;;;;;;5089348;28;20891;-84
2021/05/12 12:30:22;;;;;;;21.60;19.42;;;;;;;;;;5089296;28;20391;-83
2021/05/12 12:32:48;;;;;;;21.67;19.48;;;;;;;;;;5072407;28;20378;-84
2021/05/12 12:35:14;;;;;;;21.10;18.90;;;;;;;;;;5070404;28;20358;-83
2021/05/12 12:37:42;;;;;;;20.98;18.88;;;;;;;;;;5083572;28;20384;-84
2021/05/12 12:40:10;;;;;;;21.27;19.10;;;;;;;;;;5094216;28;20428;-83
2021/05/12 12:42:39;;;;;;;19.52;17.50;;;;;;;;;;5094015;28;20395;-84
2021/05/12 12:45:14;;;;;;;19.48;17.50;;;;;;;;;;5094401;28;20408;-84
2021/05/12 12:47:40;;;;;;;21.48;18.77;;;;;;;;;;5093153;28;20376;-84
2021/05/12 12:50:07;;;;;;;21.02;19.02;;;;;;;;;;5084120;28;20385;-83
2021/05/12 12:52:39;;;;;;;22.15;19.83;;;;;;;;;;5070724;28;20725;-83
2021/05/12 12:55:06;;;;;;;22.70;19.17;;;;;;;;;;5074036;28;20489;-83
2021/05/12 12:57:39;;;;;;;21.48;19.23;;;;;;;;;;5074116;28;20872;-83
2021/05/12 13:00:06;;;;;;;24.00;21.60;;;;;;;;;;5072674;28;20421;-83
2021/05/12 13:02:32;;;;;;;23.40;21.00;;;;;;;;;;5071897;28;20443;-83
2021/05/12 13:05:16;;;;;;;21.30;19.17;;;;;;;;;;5073613;28;20406;-84
2021/05/12 13:07:43;;;;;;;21.17;19.17;;;;;;;;;;5073728;28;20381;-84
2021/05/12 13:10:22;;;;;;;20.40;18.40;;;;;;;;;;5078958;28;20380;-83
2021/05/12 13:12:49;;;;;;;21.63;19.40;;;;;;;;;;5090977;28;20723;-83
2021/05/12 13:15:22;;;;;;;23.80;21.50;;;;;;;;;;5092558;28;20381;-84
2021/05/12 13:17:52;;;;;;;23.55;21.15;;;;;;;;;;5089143;28;20460;-83
2021/05/12 13:20:19;;;;;;;25.08;22.60;;;;;;;;;;5093540;28;20459;-82
2021/05/12 13:22:58;;;;;;;24.50;22.00;;;;;;;;;;5093812;28;20726;-82
2021/05/12 13:25:24;;;;;;;25.08;22.50;;;;;;;;;;5092843;28;20424;-84
2021/05/12 13:27:50;;;;;;;25.48;22.80;;;;;;;;;;5092291;28;20369;-83
2021/05/12 13:30:16;;;;;;;25.83;23.30;;;;;;;;;;5093794;28;20946;-84
2021/05/12 13:32:42;;;;;;;24.83;22.27;;;;;;;;;;5093065;28;20404;-83
2021/05/12 13:35:09;;;;;;;25.83;23.13;;;;;;;;;;5093661;28;20380;-84
2021/05/12 13:37:38;;;;;;;24.33;21.90;;;;;;;;;;5090706;28;20380;-83
2021/05/12 13:40:04;;;;;;;24.58;22.10;;;;;;;;;;5092148;28;20842;-84
2021/05/12 13:42:30;;;;;;;24.80;22.30;;;;;;;;;;5083939;28;20405;-84
2021/05/12 13:44:57;;;;;;;24.15;21.85;;;;;;;;;;5078318;28;20847;-83
2021/05/12 14:25:25;;;;;;;25.30;22.88;;;;;;;;;;6212724;22;1557096;-81
2021/05/12 14:27:55;;;;;;;25.02;22.63;;;;;;;;;;6278640;22;20392;-80
2021/05/12 14:30:22;;;;;;;26.05;23.38;;;;;;;;;;6252242;22;20408;-85
2021/05/12 14:32:50;;;;;;;25.20;22.77;;;;;;;;;;6252451;22;20338;-88
2021/05/12 14:35:16;;;;;;;26.63;24.00;;;;;;;;;;6254094;22;20851;-86
2021/05/12 14:37:44;;;;;;;26.73;23.93;;;;;;;;;;6252194;22;20361;-84
2021/05/12 14:40:10;;;;;;;26.07;23.53;;;;;;;;;;6254064;22;20804;-85
2021/05/12 14:42:36;;;;;;;27.55;24.65;;;;;;;;;;6252138;22;20835;-84
2021/05/12 14:45:02;;;;;;;28.13;25.40;;;;;;;;;;6253394;22;20392;-86
2021/05/12 14:47:28;;;;;;;26.00;23.50;;;;;;;;;;6253189;22;20338;-87
2021/05/12 14:49:55;;;;;;;27.52;24.85;;;;;;;;;;6250302;22;21241;-83
2021/05/12 14:52:47;;;;;;;27.45;24.75;;;;;;;;;;6277554;22;20464;-87
2021/05/12 14:58:21;;;;;;;27.50;24.70;;;;;;;;;;6257796;22;20388;-87
2021/05/12 15:03:54;;;;;;;25.25;22.83;;;;;;;;;;6272950;22;20496;-86
2021/05/12 15:09:20;;;;;;;26.10;23.47;;;;;;;;;;6147988;23;20378;-85
2021/05/12 15:11:48;;;;;;;24.70;22.40;;;;;;;;;;6244738;22;20335;-88
2021/05/12 15:14:14;;;;;;;25.30;22.83;;;;;;;;;;6243545;22;20382;-85
2021/05/12 15:16:40;;;;;;;26.10;23.60;;;;;;;;;;6244455;22;20380;-86
2021/05/12 15:19:06;;;;;;;25.60;22.90;;;;;;;;;;6244720;22;20381;-87
2021/05/12 15:21:32;;;;;;;25.30;22.90;;;;;;;;;;6244411;22;20335;-87
2021/05/12 15:23:58;;;;;;;24.25;21.95;;;;;;;;;;6244866;22;20413;-86